Linn Grove, Iowa
Current Conditions -  °F | °C
As of 6:15 PM on Sunday 23 Nov 2014 (Local Time) from KCKP Reporting Station
Broken Clouds Broken Clouds  
Wind Chill: 28°   Ceiling: 3600
Heat Index: 39°   Visibility: 10mi
Dew Point: 32°   Wind: 23mph
Humidity: 75%   Direction: 330°NNW
Pressure: 29.51"   Gusts: 30mph
Location:  42.89°N, 95.25°W
Report Text: KCKP 240015Z AUTO 33020G26KT 10SM BKN036 BKN042 04/00 A2951 RMK AO2 T00391001
Loading
Personal Weather Stations






























Interactive Weather Map New forecast layout! Learn more

10-Day Weather Forecast

Advertisements
Track Severe Weather on mobile